Time;durP1;ratioP1;P1;durP2;ratioP2;P2;SDS_P1;SDS_P2;PMS_P1;PMS_P2;Temp;Humidity;BMP_temperature;BMP_pressure;BME280_temperature;BME280_humidity;BME280_pressure;Samples;Min_cycle;Max_cycle;Signal;HPM_P1;HPM_P2
2022/12/24 00:00:59;;;;;;;47.83;18.17;;;;;;;5.89;100.00;99594.69;5122204;56;1140976;-78
2022/12/24 00:06:07;;;;;;;35.95;17.32;;;;;;;5.86;100.00;99602.73;5122334;56;1140993;-79
2022/12/24 00:11:14;;;;;;;46.83;17.77;;;;;;;5.88;100.00;99600.41;5060370;56;1140736;-77
2022/12/24 00:16:20;;;;;;;28.00;14.97;;;;;;;5.85;100.00;99608.46;5038024;57;1138772;-76
2022/12/24 00:21:26;;;;;;;39.60;17.10;;;;;;;5.81;100.00;99610.94;5038810;56;1140844;-77
2022/12/24 00:26:33;;;;;;;32.13;16.03;;;;;;;5.83;100.00;99607.73;5142017;56;1140886;-78
2022/12/24 00:31:39;;;;;;;31.85;15.55;;;;;;;5.86;100.00;99618.48;5118919;56;1140762;-76
2022/12/24 00:36:45;;;;;;;43.65;17.02;;;;;;;5.85;100.00;99614.19;5037598;57;1140941;-78
2022/12/24 00:41:50;;;;;;;46.48;16.70;;;;;;;5.83;100.00;99615.60;5082080;56;1140836;-72
2022/12/24 00:46:57;;;;;;;32.70;15.00;;;;;;;5.77;100.00;99624.41;5122269;56;1138910;-78
2022/12/24 00:52:03;;;;;;;29.77;14.07;;;;;;;5.69;100.00;99610.98;5047673;56;1141029;-79
2022/12/24 00:57:09;;;;;;;33.08;16.65;;;;;;;5.70;100.00;99615.29;5037698;56;1140929;-81
2022/12/24 01:02:15;;;;;;;28.60;14.60;;;;;;;5.70;100.00;99611.35;5057122;57;1140845;-68
2022/12/24 01:07:21;;;;;;;27.57;15.37;;;;;;;5.68;100.00;99618.49;5037477;57;1140935;-79
2022/12/24 01:12:27;;;;;;;28.10;16.03;;;;;;;5.61;100.00;99614.17;5037343;57;1140968;-73
2022/12/24 01:17:36;;;;;;;26.40;15.26;;;;;;;5.54;100.00;99615.08;5076264;57;1138782;-76
2022/12/24 01:22:42;;;;;;;28.25;14.43;;;;;;;5.48;100.00;99610.76;5034916;57;1140878;-74
2022/12/24 01:27:48;;;;;;;25.48;13.93;;;;;;;5.42;100.00;99612.48;5045231;57;1140819;-74
2022/12/24 01:32:53;;;;;;;30.30;15.32;;;;;;;5.41;100.00;99614.74;5040814;57;1141064;-74
2022/12/24 01:37:59;;;;;;;23.40;15.50;;;;;;;5.38;100.00;99613.64;4985377;57;1140907;-75
2022/12/24 01:43:25;;;;;;;27.23;15.20;;;;;;;5.33;100.00;99614.46;5045096;57;1140979;-80
2022/12/24 01:48:44;;;;;;;22.43;13.50;;;;;;;5.32;100.00;99609.69;5031290;57;1141031;-80
2022/12/24 01:53:54;;;;;;;24.05;14.35;;;;;;;5.29;100.00;99620.39;4982679;58;1140977;-74
2022/12/24 01:59:04;;;;;;;28.90;13.93;;;;;;;5.28;100.00;99626.10;4962389;58;1140876;-72
2022/12/24 02:04:21;;;;;;;26.60;15.32;;;;;;;5.27;100.00;99620.97;4963089;57;1140999;-75
2022/12/24 02:09:27;;;;;;;22.00;12.70;;;;;;;5.29;100.00;99619.08;4982182;57;1141212;-73
2022/12/24 02:14:34;;;;;;;21.00;12.80;;;;;;;5.22;100.00;99619.97;4962728;57;1138823;-74
2022/12/24 02:20:19;;;;;;;24.10;13.67;;;;;;;5.17;100.00;99623.88;5027339;57;1140981;-68
2022/12/24 02:25:45;;;;;;;22.58;12.45;;;;;;;5.13;100.00;99625.02;5043824;57;1140782;-72
2022/12/24 02:31:07;;;;;;;26.10;14.03;;;;;;;5.09;100.00;99623.55;5058997;57;1140931;-78
2022/12/24 02:36:38;;;;;;;22.77;13.23;;;;;;;5.06;100.00;99619.35;4966747;57;1140925;-72
2022/12/24 02:42:06;;;;;;;23.67;12.80;;;;;;;5.06;100.00;99621.97;4953078;57;1140783;-77
2022/12/24 02:47:14;;;;;;;23.15;12.15;;;;;;;4.99;100.00;99622.05;4963051;57;1141032;-77
2022/12/24 02:52:35;;;;;;;24.50;13.67;;;;;;;4.95;100.00;99623.20;5059541;57;1140862;-79
2022/12/24 02:58:03;;;;;;;26.17;13.78;;;;;;;4.91;100.00;99628.27;5041798;57;1141008;-73
2022/12/24 03:03:16;;;;;;;28.00;15.37;;;;;;;4.91;100.00;99617.31;5044870;57;1141155;-76
2022/12/24 03:09:00;;;;;;;25.85;14.93;;;;;;;4.89;100.00;99628.37;5003400;57;1140856;-72
2022/12/24 03:14:07;;;;;;;28.30;15.75;;;;;;;4.88;100.00;99635.05;4963077;57;1141105;-75
2022/12/24 03:19:13;;;;;;;28.60;15.90;;;;;;;4.83;100.00;99642.37;5015565;57;1140843;-80
2022/12/24 03:24:20;;;;;;;28.17;16.33;;;;;;;4.81;100.00;99645.09;5091952;56;1140873;-76
2022/12/24 03:29:25;;;;;;;35.80;17.90;;;;;;;4.82;100.00;99647.25;5126705;56;1141253;-77
2022/12/24 03:34:31;;;;;;;31.23;17.00;;;;;;;4.80;100.00;99649.13;5095222;56;1138796;-73
2022/12/24 03:39:38;;;;;;;33.33;18.55;;;;;;;4.77;100.00;99650.64;5030676;57;1140989;-75
2022/12/24 03:44:45;;;;;;;33.88;16.73;;;;;;;4.76;100.00;99656.34;5028716;56;1141154;-77
2022/12/24 03:49:51;;;;;;;29.57;15.17;;;;;;;4.78;100.00;99664.95;5063258;57;1140795;-77
2022/12/24 03:54:57;;;;;;;35.07;17.23;;;;;;;4.78;100.00;99658.86;5042897;56;1140896;-72
2022/12/24 04:00:05;;;;;;;33.47;16.80;;;;;;;4.76;100.00;99660.74;5042776;56;1140935;-72
2022/12/24 04:05:17;;;;;;;30.27;16.40;;;;;;;4.78;100.00;99666.72;5042256;57;1140975;-74
2022/12/24 04:10:23;;;;;;;26.27;14.03;;;;;;;4.74;100.00;99670.02;5059347;56;1141012;-73
2022/12/24 04:15:29;;;;;;;32.40;15.73;;;;;;;4.69;100.00;99676.52;5038157;57;1140919;-77
2022/12/24 04:20:35;;;;;;;23.77;14.27;;;;;;;4.64;100.00;99668.96;5036349;57;1141061;-75
2022/12/24 04:25:41;;;;;;;32.90;16.23;;;;;;;4.64;100.00;99679.91;5129415;56;1140931;-78
2022/12/24 04:30:48;;;;;;;31.05;15.05;;;;;;;4.60;100.00;99681.88;5122132;56;1140950;-74
2022/12/24 04:35:54;;;;;;;25.13;13.53;;;;;;;4.55;100.00;99688.75;5071373;56;1140967;-77
2022/12/24 04:41:07;;;;;;;22.93;12.73;;;;;;;4.55;100.00;99688.75;5038041;57;1139108;-73
2022/12/24 04:46:20;;;;;;;21.77;11.30;;;;;;;4.55;100.00;99704.94;5057237;57;1141101;-76
2022/12/24 04:51:28;;;;;;;19.80;10.70;;;;;;;4.55;100.00;99707.55;5101234;56;1140923;-76
2022/12/24 04:56:34;;;;;;;24.70;11.97;;;;;;;4.49;100.00;99700.09;5122169;56;1138755;-79
2022/12/24 05:01:39;;;;;;;22.50;11.47;;;;;;;4.43;100.00;99699.20;5068778;56;1140940;-75
2022/12/24 05:06:45;;;;;;;19.87;10.78;;;;;;;4.40;100.00;99711.17;5037563;57;1140900;-74
2022/12/24 05:11:51;;;;;;;26.62;14.07;;;;;;;4.43;100.00;99714.41;5037630;57;1140894;-75
2022/12/24 05:16:57;;;;;;;21.40;10.63;;;;;;;4.43;100.00;99714.41;5057724;57;1138880;-75
2022/12/24 05:27:28;;;;;;;22.13;12.43;;;;;;;4.30;100.00;99714.84;5127244;56;1140853;-77
2022/12/24 05:32:34;;;;;;;23.07;11.07;;;;;;;4.23;100.00;99716.19;5128235;56;1141166;-71
2022/12/24 05:37:40;;;;;;;26.42;11.68;;;;;;;4.22;100.00;99724.51;5031089;57;1140936;-76
2022/12/24 05:42:47;;;;;;;21.40;10.23;;;;;;;4.21;100.00;99732.45;5028357;56;1140961;-81
2022/12/24 05:47:53;;;;;;;23.77;10.08;;;;;;;4.18;100.00;99741.34;5062565;57;1138888;-70
2022/12/24 05:52:59;;;;;;;21.70;9.60;;;;;;;4.15;100.00;99745.45;5042822;57;1138793;-73
2022/12/24 05:58:05;;;;;;;19.20;8.93;;;;;;;4.11;100.00;99738.75;5042991;57;1139462;-78
2022/12/24 06:03:11;;;;;;;17.07;8.60;;;;;;;4.12;100.00;99741.74;5062393;57;1138887;-75
2022/12/24 06:08:17;;;;;;;20.10;10.90;;;;;;;4.13;100.00;99762.17;5042815;57;1138738;-69
2022/12/24 06:13:22;;;;;;;18.90;10.17;;;;;;;4.11;100.00;99768.00;5042495;57;1138669;-76
2022/12/24 06:18:32;;;;;;;15.73;8.80;;;;;;;4.10;100.00;99782.86;5071776;56;1138919;-74
2022/12/24 06:23:42;;;;;;;18.23;8.07;;;;;;;4.04;100.00;99787.16;5127588;56;1136705;-72
2022/12/24 06:28:49;;;;;;;16.70;8.65;;;;;;;4.04;100.00;99794.17;5127685;56;1136787;-75
2022/12/24 06:33:55;;;;;;;13.53;8.13;;;;;;;4.05;100.00;99799.31;5105456;56;1136566;-75
2022/12/24 06:39:01;;;;;;;16.13;7.60;;;;;;;4.09;100.00;99806.50;5042651;57;1138731;-72
2022/12/24 06:44:08;;;;;;;13.70;8.23;;;;;;;4.09;100.00;99811.27;5042753;57;1138803;-70
2022/12/24 06:49:14;;;;;;;15.77;7.97;;;;;;;4.06;100.00;99826.31;5061282;57;1136600;-74
2022/12/24 06:54:19;;;;;;;14.90;7.80;;;;;;;4.05;100.00;99829.39;4956757;58;1138784;-72
2022/12/24 06:59:26;;;;;;;16.70;8.20;;;;;;;4.03;100.00;99838.27;5038457;57;1138730;-75
2022/12/24 07:04:32;;;;;;;12.30;7.47;;;;;;;3.99;100.00;99845.46;4975989;58;1138738;-70
2022/12/24 07:09:38;;;;;;;12.33;8.50;;;;;;;3.97;100.00;99846.05;5041521;56;1138794;-76
2022/12/24 07:14:44;;;;;;;15.93;8.77;;;;;;;3.98;100.00;99859.47;5043309;56;1138728;-79
2022/12/24 07:19:50;;;;;;;16.67;9.18;;;;;;;3.98;100.00;99875.64;5063461;57;1138839;-76
2022/12/24 07:24:55;;;;;;;16.80;9.25;;;;;;;3.98;100.00;99892.17;5103946;56;1136643;-74
2022/12/24 07:30:01;;;;;;;18.57;10.30;;;;;;;3.96;100.00;99900.61;5049524;56;1136797;-74
2022/12/24 07:35:08;;;;;;;20.27;9.98;;;;;;;3.94;100.00;99915.55;4985650;57;1138957;-78
2022/12/24 07:40:14;;;;;;;19.50;10.83;;;;;;;3.94;100.00;99914.71;4983435;58;1136624;-79
2022/12/24 07:45:20;;;;;;;19.15;9.83;;;;;;;3.96;100.00;99914.16;4991912;57;1140818;-73
2022/12/24 07:50:25;;;;;;;21.07;10.63;;;;;;;4.02;100.00;99913.30;5000581;56;1138682;-79
2022/12/24 07:55:31;;;;;;;23.67;12.50;;;;;;;4.06;100.00;99925.74;4987883;57;1141031;-79
2022/12/24 08:00:37;;;;;;;34.27;17.07;;;;;;;4.13;100.00;99940.13;5045031;57;1138814;-73
2022/12/24 08:05:43;;;;;;;34.67;17.93;;;;;;;4.19;100.00;99945.00;5041174;57;1138846;-73
2022/12/24 08:10:49;;;;;;;36.08;18.70;;;;;;;4.18;100.00;99946.77;4918216;58;1138839;-75
2022/12/24 08:15:55;;;;;;;29.03;17.83;;;;;;;4.16;100.00;99951.72;4962358;58;1138882;-75
2022/12/24 08:21:02;;;;;;;30.27;15.93;;;;;;;4.12;100.00;99958.94;4925809;57;1140938;-70
2022/12/24 08:26:12;;;;;;;32.70;16.80;;;;;;;4.13;100.00;99967.60;4974260;57;1141101;-77
2022/12/24 08:31:17;;;;;;;34.30;17.73;;;;;;;4.12;100.00;99983.80;4982343;56;1141039;-73
2022/12/24 08:36:23;;;;;;;34.80;18.13;;;;;;;4.18;100.00;99993.88;4997531;56;1140786;-77
2022/12/24 08:41:29;;;;;;;30.07;17.13;;;;;;;4.14;100.00;99997.61;5010449;56;1139161;-77
2022/12/24 08:46:35;;;;;;;35.87;17.13;;;;;;;4.09;100.00;99999.67;5045782;56;1138793;-78
2022/12/24 08:51:44;;;;;;;30.15;17.17;;;;;;;4.07;100.00;99995.00;4996461;57;1140750;-74
2022/12/24 08:56:50;;;;;;;27.65;17.87;;;;;;;4.04;100.00;100008.72;4973692;57;1140874;-71
2022/12/24 09:01:55;;;;;;;29.23;16.02;;;;;;;4.07;100.00;100017.23;5102299;55;1142932;-77
2022/12/24 09:07:01;;;;;;;34.23;18.30;;;;;;;4.08;100.00;100021.55;5118940;55;1140938;-74
2022/12/24 09:12:08;;;;;;;30.48;17.02;;;;;;;4.05;100.00;100027.41;5014147;56;1141007;-70
2022/12/24 09:17:14;;;;;;;30.57;15.97;;;;;;;4.01;100.00;100024.59;5061853;56;1142848;-74
2022/12/24 09:22:21;;;;;;;30.03;17.27;;;;;;;4.05;100.00;100033.48;5048932;56;1142920;-80
2022/12/24 09:27:26;;;;;;;32.67;17.47;;;;;;;4.12;100.00;100041.38;5044510;56;1142978;-78
2022/12/24 09:32:32;;;;;;;32.13;16.13;;;;;;;4.10;100.00;100043.70;5049852;56;1141080;-76
2022/12/24 09:37:38;;;;;;;28.13;15.40;;;;;;;4.05;100.00;100044.42;5037854;56;1141078;-74
2022/12/24 09:42:53;;;;;;;28.73;15.33;;;;;;;4.06;100.00;100056.11;5050521;56;1141068;-77
2022/12/24 09:48:13;;;;;;;30.10;14.56;;;;;;;4.07;100.00;100059.58;5050834;56;1143099;-76
2022/12/24 09:53:41;;;;;;;29.80;14.17;;;;;;;4.02;100.00;100069.45;5050284;55;1142896;-73
2022/12/24 09:59:01;;;;;;;29.27;16.87;;;;;;;4.03;100.00;100078.98;5029720;56;1143601;-74
2022/12/24 10:04:13;;;;;;;32.80;15.90;;;;;;;4.03;100.00;100079.83;5038705;56;1142919;-76
2022/12/24 10:09:44;;;;;;;29.50;16.90;;;;;;;4.07;100.00;100080.50;4995205;56;1143029;-80
2022/12/24 10:15:11;;;;;;;29.60;16.67;;;;;;;4.09;100.00;100089.96;4974881;56;1140892;-72
2022/12/24 10:20:47;;;;;;;36.37;15.83;;;;;;;4.09;100.00;100106.97;4954627;57;1140869;-73
2022/12/24 10:26:19;;;;;;;32.73;17.03;;;;;;;4.08;100.00;100107.05;5032931;56;1140827;-74
2022/12/24 10:31:29;;;;;;;34.80;17.60;;;;;;;4.10;100.00;100120.90;5038931;56;1140930;-77
2022/12/24 10:36:35;;;;;;;32.47;17.07;;;;;;;4.15;100.00;100134.54;4982719;57;1142951;-70
2022/12/24 10:41:41;;;;;;;33.67;16.25;;;;;;;4.17;100.00;100139.23;4962920;57;1142926;-74
2022/12/24 10:46:47;;;;;;;30.30;17.27;;;;;;;4.18;100.00;100140.45;4863952;59;1142978;-75
2022/12/24 10:52:00;;;;;;;39.03;17.65;;;;;;;4.24;100.00;100153.66;4950131;58;1143341;-75
2022/12/24 10:57:10;;;;;;;32.60;17.00;;;;;;;4.24;100.00;100154.51;4946636;58;1140973;-71
2022/12/24 11:02:35;;;;;;;38.80;16.47;;;;;;;4.23;100.00;100158.52;5030850;56;1140859;-79
2022/12/24 11:07:41;;;;;;;37.13;18.30;;;;;;;4.18;100.00;100158.77;5050066;56;1140694;-74
2022/12/24 11:12:50;;;;;;;31.83;17.80;;;;;;;4.19;100.00;100162.23;5021079;56;1143008;-78
2022/12/24 11:17:59;;;;;;;33.33;16.50;;;;;;;4.21;100.00;100166.92;5029928;56;1142988;-73
2022/12/24 11:23:09;;;;;;;35.78;15.70;;;;;;;4.21;100.00;100178.70;5034330;56;1143235;-75
2022/12/24 11:28:21;;;;;;;30.17;13.80;;;;;;;4.21;100.00;100181.31;5050129;56;1143284;-70
2022/12/24 11:33:29;;;;;;;32.55;15.03;;;;;;;4.22;100.00;100186.47;5042397;56;1142979;-74
2022/12/24 11:38:36;;;;;;;40.70;19.33;;;;;;;4.26;100.00;100199.39;5067268;56;1140832;-74
2022/12/24 11:43:47;;;;;;;35.00;15.83;;;;;;;4.28;100.00;100193.60;5077527;56;1140955;-80
2022/12/24 11:49:15;;;;;;;35.00;16.55;;;;;;;4.28;100.00;100190.98;5049107;56;1141003;-72
2022/12/24 11:54:26;;;;;;;37.63;18.57;;;;;;;4.30;100.00;100193.87;4888136;58;1141147;-79
2022/12/24 11:59:42;;;;;;;37.73;18.60;;;;;;;4.34;100.00;100203.70;4896199;56;1143050;-80
2022/12/24 12:04:52;;;;;;;43.47;20.27;;;;;;;4.38;100.00;100211.31;4920412;58;1143016;-69
2022/12/24 12:10:20;;;;;;;37.80;17.73;;;;;;;4.36;100.00;100217.56;4911828;58;1140957;-76
2022/12/24 12:15:39;;;;;;;32.10;14.63;;;;;;;4.28;100.00;100228.94;4913215;58;1140906;-75
2022/12/24 12:20:51;;;;;;;32.00;14.10;;;;;;;4.21;100.00;100227.13;4986910;55;1140816;-74
2022/12/24 12:26:07;;;;;;;19.65;11.03;;;;;;;4.11;100.00;100233.34;4988840;57;1142881;-77
2022/12/24 12:31:29;;;;;;;24.80;13.23;;;;;;;4.10;100.00;100242.59;5048497;55;1142909;-75
2022/12/24 12:36:40;;;;;;;30.27;14.67;;;;;;;4.08;100.00;100243.13;5126879;55;1140992;-75
2022/12/24 12:42:20;;;;;;;28.33;14.10;;;;;;;4.06;100.00;100245.83;5150820;55;1140828;-73
2022/12/24 12:47:48;;;;;;;30.23;13.77;;;;;;;4.09;100.00;100244.82;5136485;55;1140830;-74
2022/12/24 12:53:26;;;;;;;31.37;13.97;;;;;;;4.13;100.00;100247.63;5064130;56;1142978;-75
2022/12/24 12:58:48;;;;;;;26.90;13.40;;;;;;;4.12;100.00;100256.44;5018390;56;1142949;-72
2022/12/24 13:04:29;;;;;;;28.70;13.18;;;;;;;4.14;100.00;100270.25;5105710;55;1140833;-73
2022/12/24 13:09:55;;;;;;;18.43;10.90;;;;;;;4.08;100.00;100271.91;5054202;56;1140996;-72
2022/12/24 13:15:25;;;;;;;23.93;12.20;;;;;;;4.02;100.00;100281.39;5068190;56;1140799;-73
2022/12/24 13:20:35;;;;;;;30.20;15.37;;;;;;;3.96;100.00;100283.05;5063632;56;1140875;-69
2022/12/24 13:25:45;;;;;;;25.17;10.83;;;;;;;3.98;100.00;100300.80;5065110;55;1142892;-67
2022/12/24 13:31:03;;;;;;;21.77;10.63;;;;;;;4.02;100.00;100297.09;5074672;55;1143061;-69
2022/12/24 13:36:18;;;;;;;22.10;11.40;;;;;;;4.01;100.00;100304.56;5137474;55;1143017;-66
2022/12/24 13:41:38;;;;;;;24.70;13.67;;;;;;;4.01;100.00;100304.56;5110523;55;1141034;-69
2022/12/24 13:47:03;;;;;;;24.67;11.53;;;;;;;4.01;100.00;100308.48;5081212;56;1140782;-65
2022/12/24 13:52:14;;;;;;;23.10;11.20;;;;;;;3.99;100.00;100308.56;5053208;55;1140730;-69
2022/12/24 13:57:40;;;;;;;21.10;10.87;;;;;;;3.97;100.00;100324.84;5014396;56;1140908;-68
2022/12/24 14:03:14;;;;;;;23.97;13.47;;;;;;;4.01;100.00;100315.88;5072695;56;1141100;-66
2022/12/24 14:08:36;;;;;;;27.13;12.00;;;;;;;4.05;100.00;100322.64;5057754;55;1142857;-67
2022/12/24 14:13:50;;;;;;;34.27;16.73;;;;;;;4.12;100.00;100325.78;5053874;56;1143101;-68
2022/12/24 14:19:16;;;;;;;73.60;32.13;;;;;;;4.13;100.00;100334.84;5067593;56;1140839;-66
2022/12/24 14:24:26;;;;;;;64.23;30.87;;;;;;;4.16;100.00;100335.98;5048137;56;1141016;-66
2022/12/24 14:29:35;;;;;;;128.73;50.10;;;;;;;4.12;100.00;100341.03;5101423;55;1140890;-67
2022/12/24 14:34:41;;;;;;;40.40;16.93;;;;;;;4.11;100.00;100348.50;5141243;55;1142935;-66
2022/12/24 14:39:55;;;;;;;47.87;25.13;;;;;;;4.10;100.00;100355.96;5120756;55;1142941;-68
2022/12/24 14:45:18;;;;;;;24.83;13.00;;;;;;;4.06;100.00;100362.74;5125118;55;1143098;-65
2022/12/24 14:50:49;;;;;;;29.50;13.03;;;;;;;4.01;100.00;100375.21;5122598;55;1143053;-67
2022/12/24 14:55:55;;;;;;;26.73;13.30;;;;;;;4.11;100.00;100394.76;5147149;55;1142794;-68
2022/12/24 15:01:05;;;;;;;26.05;14.30;;;;;;;4.17;100.00;100406.19;5106653;55;1140899;-65
2022/12/24 15:06:13;;;;;;;19.93;10.93;;;;;;;4.16;100.00;100409.73;5039426;56;1141004;-67
2022/12/24 15:11:23;;;;;;;22.87;12.43;;;;;;;4.12;100.00;100421.31;5092863;56;1141060;-70
2022/12/24 15:16:32;;;;;;;23.90;13.07;;;;;;;4.11;100.00;100427.01;5097407;56;1142990;-65
2022/12/24 15:21:40;;;;;;;22.73;13.20;;;;;;;4.11;100.00;100427.01;5102167;55;1143045;-66
2022/12/24 15:26:46;;;;;;;25.52;12.68;;;;;;;4.04;100.00;100415.62;5167505;55;1142945;-67
2022/12/24 15:31:58;;;;;;;26.77;14.43;;;;;;;4.03;100.00;100427.01;5156748;55;1143097;-65
2022/12/24 15:37:18;;;;;;;26.50;15.07;;;;;;;4.01;100.00;100431.47;5047183;56;1140873;-70
2022/12/24 15:42:26;;;;;;;29.00;14.20;;;;;;;3.90;100.00;100432.03;5056399;56;1140926;-69
2022/12/24 15:47:39;;;;;;;29.80;14.47;;;;;;;3.83;100.00;100436.72;5118613;55;1140878;-67
2022/12/24 15:52:46;;;;;;;28.05;13.45;;;;;;;3.79;100.00;100440.91;5071777;55;1143009;-66
2022/12/24 15:57:52;;;;;;;28.07;15.57;;;;;;;3.80;100.00;100443.45;5131624;55;1142894;-71
2022/12/24 16:03:22;;;;;;;43.28;22.58;;;;;;;3.76;100.00;100443.20;5151786;55;1142917;-67
2022/12/24 16:08:38;;;;;;;36.07;19.97;;;;;;;3.78;100.00;100449.67;5117555;55;1142920;-66
2022/12/24 16:14:04;;;;;;;33.87;18.27;;;;;;;3.76;100.00;100465.91;5098301;56;1140784;-71
2022/12/24 16:19:22;;;;;;;88.87;26.63;;;;;;;3.75;100.00;100462.90;5098687;56;1140858;-67
2022/12/24 16:24:30;;;;;;;134.13;36.17;;;;;;;3.80;100.00;100473.98;5120660;55;1142979;-70
2022/12/24 16:29:36;;;;;;;109.23;31.03;;;;;;;3.84;100.00;100489.43;5108030;56;1145057;-70
2022/12/24 16:34:42;;;;;;;120.43;34.67;;;;;;;3.93;100.00;100500.38;5042974;56;1145166;-71
2022/12/24 16:39:49;;;;;;;78.87;26.23;;;;;;;3.97;100.00;100498.84;5065327;55;1143044;-70
2022/12/24 16:44:54;;;;;;;160.50;45.57;;;;;;;3.96;100.00;100511.54;5040704;55;1140862;-67
2022/12/24 16:50:01;;;;;;;154.72;46.05;;;;;;;3.94;100.00;100508.61;5084231;56;1142837;-70
2022/12/24 16:55:07;;;;;;;114.87;36.50;;;;;;;3.95;100.00;100491.98;5074425;55;1145167;-66
2022/12/24 17:00:20;;;;;;;58.53;26.10;;;;;;;3.94;100.00;100481.14;5208134;55;1145230;-68
2022/12/24 17:05:27;;;;;;;65.27;24.67;;;;;;;3.91;100.00;100490.44;5188769;55;1140778;-66
2022/12/24 17:10:33;;;;;;;207.73;90.03;;;;;;;3.87;100.00;100489.74;5081946;55;1141022;-68
2022/12/24 17:15:42;;;;;;;230.00;100.87;;;;;;;3.89;100.00;100510.98;5113690;55;1143004;-69
2022/12/24 17:20:58;;;;;;;129.57;61.23;;;;;;;3.94;100.00;100519.92;5100916;56;1147251;-67
2022/12/24 17:26:03;;;;;;;91.40;43.77;;;;;;;3.99;100.00;100529.67;5139980;55;1145155;-65
2022/12/24 17:31:15;;;;;;;103.20;33.67;;;;;;;3.97;100.00;100540.70;5167268;55;1140966;-66
2022/12/24 17:36:21;;;;;;;85.40;34.57;;;;;;;3.89;100.00;100547.61;5105923;55;1142765;-69
2022/12/24 17:41:27;;;;;;;77.47;42.30;;;;;;;3.89;100.00;100547.61;5101636;56;1141026;-65
2022/12/24 17:46:33;;;;;;;113.73;41.33;;;;;;;3.87;100.00;100535.06;5066733;55;1142920;-67
2022/12/24 17:51:38;;;;;;;202.90;68.20;;;;;;;3.88;100.00;100541.99;5033522;57;1145092;-66
2022/12/24 17:56:44;;;;;;;92.80;39.60;;;;;;;3.85;100.00;100536.91;5043051;56;1142959;-70
2022/12/24 18:01:50;;;;;;;84.03;35.33;;;;;;;3.75;100.00;100535.68;5097810;56;1140778;-66
2022/12/24 18:06:55;;;;;;;68.83;28.85;;;;;;;3.76;100.00;100540.45;5126585;55;1143151;-67
2022/12/24 18:12:01;;;;;;;56.65;25.75;;;;;;;3.83;100.00;100548.36;5184118;55;1143083;-69
2022/12/24 18:17:07;;;;;;;65.70;28.10;;;;;;;3.84;100.00;100560.52;5184713;55;1141067;-67
2022/12/24 18:22:13;;;;;;;60.12;26.90;;;;;;;3.76;100.00;100567.45;5204827;55;1140981;-69
2022/12/24 18:27:21;;;;;;;69.60;29.07;;;;;;;3.74;100.00;100567.14;5102183;55;1140880;-70
2022/12/24 18:32:28;;;;;;;76.57;27.93;;;;;;;3.71;100.00;100575.13;5087217;56;1140847;-64
2022/12/24 18:37:34;;;;;;;47.30;22.77;;;;;;;3.75;100.00;100587.99;5117782;56;1143103;-64
2022/12/24 18:42:41;;;;;;;70.50;30.57;;;;;;;3.77;100.00;100580.08;5113056;56;1143136;-66
2022/12/24 18:47:47;;;;;;;53.17;26.53;;;;;;;3.71;100.00;100582.97;5055915;56;1140824;-68
2022/12/24 18:52:52;;;;;;;55.38;26.65;;;;;;;3.66;100.00;100589.76;5033806;57;1140772;-70
2022/12/24 18:57:58;;;;;;;47.50;21.83;;;;;;;3.63;100.00;100595.59;5024394;56;1142920;-69
2022/12/24 19:03:04;;;;;;;56.02;21.97;;;;;;;3.62;100.00;100597.35;5024529;56;1140849;-69
2022/12/24 19:08:10;;;;;;;52.87;27.03;;;;;;;3.67;100.00;100603.65;5054486;56;1143180;-68
2022/12/24 19:13:16;;;;;;;53.30;29.43;;;;;;;3.68;100.00;100607.96;5142297;56;1142953;-67
2022/12/24 19:18:22;;;;;;;68.57;39.20;;;;;;;3.68;100.00;100613.19;5122435;56;1141053;-68
2022/12/24 19:23:28;;;;;;;96.50;44.73;;;;;;;3.67;100.00;100603.19;5118833;55;1140874;-68
2022/12/24 19:28:34;;;;;;;79.03;36.80;;;;;;;3.66;100.00;100611.14;5110113;56;1140792;-69
2022/12/24 19:33:49;;;;;;;76.17;33.60;;;;;;;3.67;100.00;100607.11;5065579;56;1143153;-66
2022/12/24 19:38:57;;;;;;;75.87;34.47;;;;;;;3.68;100.00;100594.42;5077681;56;1142812;-66
2022/12/24 19:44:03;;;;;;;75.87;34.30;;;;;;;3.69;100.00;100611.81;5089571;56;1140904;-69
2022/12/24 19:49:11;;;;;;;75.22;32.60;;;;;;;3.68;100.00;100626.27;5118879;56;1142488;-67
2022/12/24 19:54:17;;;;;;;105.20;49.37;;;;;;;3.69;100.00;100627.97;5098984;56;1140756;-66
2022/12/24 19:59:23;;;;;;;184.63;72.90;;;;;;;3.73;100.00;100654.37;5098008;56;1145023;-68
2022/12/24 20:04:29;;;;;;;100.87;43.97;;;;;;;3.77;100.00;100646.78;5118331;56;1145053;-69
2022/12/24 20:09:35;;;;;;;100.53;43.97;;;;;;;3.80;100.00;100647.95;5153422;55;1144947;-67
2022/12/24 20:14:42;;;;;;;95.50;43.97;;;;;;;3.79;100.00;100652.79;5185040;55;1142943;-68
2022/12/24 20:19:47;;;;;;;77.97;35.03;;;;;;;3.77;100.00;100655.47;5205570;55;1140897;-69
2022/12/24 20:24:53;;;;;;;71.93;36.97;;;;;;;3.76;100.00;100639.39;5185086;55;1141124;-68
2022/12/24 20:29:59;;;;;;;75.97;35.47;;;;;;;3.77;100.00;100641.55;5164561;55;1143288;-66
2022/12/24 20:35:05;;;;;;;88.12;39.20;;;;;;;3.77;100.00;100652.01;5049087;55;1143130;-65
2022/12/24 20:40:11;;;;;;;98.10;45.92;;;;;;;3.80;100.00;100667.56;5060952;56;1143031;-67
2022/12/24 20:45:17;;;;;;;86.72;40.10;;;;;;;3.79;100.00;100671.10;5064337;55;1141165;-71
2022/12/24 20:50:24;;;;;;;103.42;43.98;;;;;;;3.78;100.00;100664.17;5108758;56;1140740;-69
2022/12/24 20:55:30;;;;;;;96.10;42.67;;;;;;;3.75;100.00;100655.16;5034285;57;1143093;-65
2022/12/24 21:00:35;;;;;;;98.43;44.77;;;;;;;3.74;100.00;100659.53;5028260;56;1143031;-64
2022/12/24 21:05:43;;;;;;;162.87;71.47;;;;;;;3.81;100.00;100670.58;5003399;56;1143051;-68
2022/12/24 21:12:47;;;;;;;159.40;77.17;;;;;;;3.84;100.00;100671.71;5049321;55;1145070;-67
2022/12/24 21:15:59;;;;;;;194.10;89.28;;;;;;;3.94;100.00;100672.98;5051518;56;1143062;-67
2022/12/24 21:21:05;;;;;;;163.92;77.22;;;;;;;3.89;100.00;100674.51;4971294;56;1142873;-71
2022/12/24 21:26:11;;;;;;;141.32;66.92;;;;;;;3.84;100.00;100673.02;5084111;56;1143072;-68
2022/12/24 21:31:17;;;;;;;95.30;44.40;;;;;;;3.87;100.00;100673.73;5083881;55;1142987;-66
2022/12/24 21:36:23;;;;;;;91.03;39.57;;;;;;;3.83;100.00;100669.55;5097014;56;1143045;-64
2022/12/24 21:41:29;;;;;;;103.50;47.57;;;;;;;3.78;100.00;100672.87;5031463;55;1143136;-66
2022/12/24 21:46:35;;;;;;;128.50;58.53;;;;;;;3.79;100.00;100659.33;5060564;56;1144996;-71
2022/12/24 21:51:44;;;;;;;121.47;52.33;;;;;;;3.81;100.00;100665.34;5080648;56;1145094;-70
2022/12/24 22:02:05;;;;;;;123.90;57.40;;;;;;;3.85;100.00;100661.17;4983044;56;1151776;-69
2022/12/24 22:12:50;;;;;;;93.20;42.57;;;;;;;3.85;100.00;100666.41;5098681;56;1145086;-67
2022/12/24 22:17:56;;;;;;;86.40;38.63;;;;;;;3.89;100.00;100660.12;5035824;55;1143015;-64
2022/12/24 22:23:02;;;;;;;85.63;40.73;;;;;;;3.84;100.00;100668.63;5049901;55;1143298;-65
2022/12/24 22:28:08;;;;;;;97.45;45.28;;;;;;;3.76;100.00;100684.31;5108191;55;1143023;-68
2022/12/24 22:33:14;;;;;;;98.50;43.50;;;;;;;3.75;100.00;100693.08;5078040;56;1142889;-68
2022/12/24 22:38:20;;;;;;;84.57;36.17;;;;;;;3.72;100.00;100697.99;5030237;56;1143018;-67
2022/12/24 22:43:26;;;;;;;91.83;42.07;;;;;;;3.75;100.00;100707.47;5057306;56;1143052;-68
2022/12/24 22:48:32;;;;;;;84.83;39.77;;;;;;;3.74;100.00;100713.16;5033156;56;1148926;-64
2022/12/24 22:53:39;;;;;;;94.00;42.17;;;;;;;3.76;100.00;100721.79;5010275;57;1214683;-67
2022/12/24 22:58:46;;;;;;;95.80;43.80;;;;;;;3.78;100.00;100738.27;5043207;56;1142859;-69
2022/12/24 23:03:51;;;;;;;105.90;44.83;;;;;;;3.77;100.00;100741.80;5061323;56;1142844;-68
2022/12/24 23:08:57;;;;;;;110.57;47.83;;;;;;;3.78;100.00;100726.50;5097743;56;1144899;-65
2022/12/24 23:19:25;;;;;;;;;;;;;;;3.83;100.00;100732.80;5058626;55;1143169;-66
2022/12/24 23:24:32;;;;;;;118.60;47.87;;;;;;;3.82;100.00;100744.18;5163925;55;974135;-66